Latest Weather Observations for Spitfire Channel

IDQ60801

Issued at 2:02 pm EST Wednesday 27 May 2015 (issued every 30 minutes, with the page automatically refreshed every 10 minutes)

About weather observations | Map of weather stations | Latest weather observations for QLD | Other Formats
Station Details ID: 040927 Name: SPITFIRE CHANNEL BEACON Lat: -27.05 Lon: 153.27 Height: 7.0 m
Data from the previous 72 hours. | See also: Recent months for locations in Queensland
Date/Time
EST
Temp
°C
App
Temp
°C
Dew
Point
Rel
Hum
%
Delta-T
°C
Wind Press
QNH
hPa
Press
MSL
hPa
Rain
since 9 am
mm
Dir
 
Spd
km/h
Gust
km/h
Spd
kts
Gust
kts
27/02:00pm - - - - - SE 13 15 7 8 - - -
27/01:30pm - - - - - SSE 15 17 8 9 - - -
27/01:00pm - - - - - SSE 17 19 9 10 - - -
27/12:30pm - - - - - S 19 20 10 11 - - -
27/12:00pm - - - - - S 20 22 11 12 - - -
27/11:30am - - - - - SSE 19 20 10 11 - - -
27/11:00am - - - - - S 19 22 10 12 - - -
27/10:30am - - - - - S 20 24 11 13 - - -
27/10:00am - - - - - S 20 24 11 13 - - -
27/09:30am - - - - - SSW 22 24 12 13 - - -
27/09:00am - - - - - S 20 24 11 13 - - -
27/08:30am - - - - - S 22 24 12 13 - - -
27/08:00am - - - - - S 22 26 12 14 - - -
27/07:30am - - - - - S 24 28 13 15 - - -
27/07:00am - - - - - S 24 28 13 15 - - -
27/06:30am - - - - - S 24 28 13 15 - - -
27/06:00am - - - - - S 22 26 12 14 - - -
27/05:30am - - - - - S 22 24 12 13 - - -
27/05:00am - - - - - S 20 24 11 13 - - -
27/04:30am - - - - - S 20 22 11 12 - - -
27/04:00am - - - - - S 20 24 11 13 - - -
27/03:30am - - - - - S 19 24 10 13 - - -
27/03:00am - - - - - S 19 20 10 11 - - -
27/02:30am - - - - - S 15 17 8 9 - - -
27/02:00am - - - - - S 17 19 9 10 - - -
27/01:30am - - - - - SSW 13 17 7 9 - - -
27/01:00am - - - - - S 13 15 7 8 - - -
27/12:30am - - - - - S 13 17 7 9 - - -
27/12:00am - - - - - SSE 15 17 8 9 - - -
 
Date/Time
EST
Temp
°C
App
Temp
°C
Dew
Point
Rel
Hum
%
Delta-T
°C
Wind Press
QNH
hPa
Press
MSL
hPa
Rain
since 9 am
mm
Dir
 
Spd
km/h
Gust
km/h
Spd
kts
Gust
kts
26/11:30pm - - - - - SSE 15 17 8 9 - - -
26/11:00pm - - - - - S 11 13 6 7 - - -
26/10:30pm - - - - - S 11 13 6 7 - - -
26/10:00pm - - - - - S 9 11 5 6 - - -
26/09:30pm - - - - - SE 7 9 4 5 - - -
26/09:00pm - - - - - ESE 9 13 5 7 - - -
26/08:30pm - - - - - E 13 17 7 9 - - -
26/08:00pm - - - - - ESE 15 19 8 10 - - -
26/07:30pm - - - - - ESE 19 20 10 11 - - -
26/07:00pm - - - - - ESE 19 22 10 12 - - -
26/06:30pm - - - - - SE 19 22 10 12 - - -
26/06:00pm - - - - - SE 19 20 10 11 - - -
26/05:30pm - - - - - SE 19 20 10 11 - - -
26/05:00pm - - - - - SE 19 22 10 12 - - -
26/04:30pm - - - - - ESE 20 22 11 12 - - -
26/04:00pm - - - - - ESE 19 20 10 11 - - -
26/03:30pm - - - - - SE 19 20 10 11 - - -
26/03:00pm - - - - - SSE 19 20 10 11 - - -
26/02:30pm - - - - - SSE 20 24 11 13 - - -
26/02:00pm - - - - - SSE 20 24 11 13 - - -
26/01:30pm - - - - - SSE 20 22 11 12 - - -
26/01:00pm - - - - - SSE 20 22 11 12 - - -
26/12:30pm - - - - - S 20 24 11 13 - - -
26/12:00pm - - - - - S 22 24 12 13 - - -
26/11:30am - - - - - S 20 24 11 13 - - -
26/11:00am - - - - - S 22 24 12 13 - - -
26/10:30am - - - - - SSE 20 24 11 13 - - -
26/10:00am - - - - - S 20 24 11 13 - - -
26/09:30am - - - - - S 20 24 11 13 - - -
26/09:00am - - - - - S 24 26 13 14 - - -
26/08:30am - - - - - S 24 28 13 15 - - -
26/08:00am - - - - - S 26 30 14 16 - - -
26/07:30am - - - - - S 24 28 13 15 - - -
26/07:00am - - - - - S 22 26 12 14 - - -
26/06:30am - - - - - S 22 24 12 13 - - -
26/06:00am - - - - - S 22 26 12 14 - - -
26/05:30am - - - - - S 22 28 12 15 - - -
26/05:00am - - - - - S 22 26 12 14 - - -
26/04:30am - - - - - S 20 24 11 13 - - -
26/04:00am - - - - - S 22 26 12 14 - - -
26/03:30am - - - - - S 22 24 12 13 - - -
26/03:00am - - - - - SSE 20 24 11 13 - - -
26/02:30am - - - - - S 20 24 11 13 - - -
26/02:00am - - - - - S 19 22 10 12 - - -
26/01:30am - - - - - S 20 24 11 13 - - -
26/01:00am - - - - - S 19 22 10 12 - - -
26/12:30am - - - - - S 20 24 11 13 - - -
26/12:00am - - - - - SSE 24 28 13 15 - - -
 
Date/Time
EST
Temp
°C
App
Temp
°C
Dew
Point
Rel
Hum
%
Delta-T
°C
Wind Press
QNH
hPa
Press
MSL
hPa
Rain
since 9 am
mm
Dir
 
Spd
km/h
Gust
km/h
Spd
kts
Gust
kts
25/11:30pm - - - - - SSE 24 30 13 16 - - -
25/11:00pm - - - - - SSE 24 28 13 15 - - -
25/10:30pm - - - - - SSE 22 26 12 14 - - -
25/10:00pm - - - - - SSE 20 24 11 13 - - -
25/09:30pm - - - - - S 19 20 10 11 - - -
25/09:00pm - - - - - SSE 19 22 10 12 - - -
25/08:30pm - - - - - SE 20 24 11 13 - - -
25/08:00pm - - - - - SE 15 17 8 9 - - -
25/07:30pm - - - - - SE 13 15 7 8 - - -
25/07:00pm - - - - - SE 20 22 11 12 - - -
25/06:30pm - - - - - SE 19 20 10 11 - - -
25/06:00pm - - - - - SE 20 24 11 13 - - -
25/05:30pm - - - - - ESE 20 24 11 13 - - -
25/05:00pm - - - - - ESE 19 22 10 12 - - -
25/04:30pm - - - - - ESE 20 24 11 13 - - -
25/04:00pm - - - - - ESE 20 24 11 13 - - -
25/03:30pm - - - - - ESE 22 26 12 14 - - -
25/03:00pm - - - - - ESE 20 24 11 13 - - -
25/02:30pm - - - - - ESE 20 24 11 13 - - -
25/02:00pm - - - - - SE 20 22 11 12 - - -
25/01:30pm - - - - - SSE 17 20 9 11 - - -
25/01:00pm - - - - - SSE 20 24 11 13 - - -
25/12:30pm - - - - - SSE 24 28 13 15 - - -
25/12:00pm - - - - - SSE 22 28 12 15 - - -
25/11:30am - - - - - SSE 22 26 12 14 - - -
25/11:00am - - - - - SSE 24 28 13 15 - - -
25/10:30am - - - - - S 22 28 12 15 - - -
25/10:00am - - - - - S 24 28 13 15 - - -
25/09:30am - - - - - S 20 24 11 13 - - -
25/09:00am - - - - - S 22 26 12 14 - - -
25/08:30am - - - - - SSE 22 26 12 14 - - -
25/08:00am - - - - - SSE 24 30 13 16 - - -
25/07:30am - - - - - SSE 24 28 13 15 - - -
25/07:00am - - - - - SSE 24 28 13 15 - - -
25/06:30am - - - - - SSE 26 30 14 16 - - -
25/06:00am - - - - - S 28 32 15 17 - - -
25/05:30am - - - - - S 26 33 14 18 - - -
25/05:00am - - - - - S 28 32 15 17 - - -
25/04:30am - - - - - S 26 32 14 17 - - -
25/04:00am - - - - - S 24 26 13 14 - - -
25/03:30am - - - - - S 26 32 14 17 - - -
25/03:00am - - - - - S 28 32 15 17 - - -
25/02:30am - - - - - S 24 30 13 16 - - -
25/02:00am - - - - - SSE 26 30 14 16 - - -
25/01:30am - - - - - SSE 28 33 15 18 - - -
25/01:00am - - - - - SSE 28 33 15 18 - - -
25/12:30am - - - - - SSE 28 33 15 18 - - -
25/12:00am - - - - - SSE 26 32 14 17 - - -
 
Date/Time
EST
Temp
°C
App
Temp
°C
Dew
Point
Rel
Hum
%
Delta-T
°C
Wind Press
QNH
hPa
Press
MSL
hPa
Rain
since 9 am
mm
Dir
 
Spd
km/h
Gust
km/h
Spd
kts
Gust
kts
24/11:30pm - - - - - SSE 30 35 16 19 - - -
24/11:00pm - - - - - SSE 30 35 16 19 - - -
24/10:30pm - - - - - SSE 33 39 18 21 - - -
24/10:00pm - - - - - SSE 32 37 17 20 - - -
24/09:30pm - - - - - SSE 30 35 16 19 - - -
24/09:00pm - - - - - SSE 33 39 18 21 - - -
24/08:30pm - - - - - SSE 32 39 17 21 - - -
24/08:23pm - - - - - SSE 30 37 16 20 - - -
24/08:00pm - - - - - SE 15 19 8 10 - - -
24/07:30pm - - - - - SSE 35 44 19 24 - - -
24/07:00pm - - - - - SE 37 46 20 25 - - -
24/06:30pm - - - - - SE 37 44 20 24 - - -
24/06:00pm - - - - - SE 33 41 18 22 - - -
24/05:30pm - - - - - SE 37 43 20 23 - - -
24/05:00pm - - - - - SE 39 44 21 24 - - -
24/04:30pm - - - - - SE 35 43 19 23 - - -
24/04:00pm - - - - - SE 30 35 16 19 - - -
24/03:30pm - - - - - SE 28 33 15 18 - - -
24/03:00pm - - - - - SE 28 33 15 18 - - -
24/02:30pm - - - - - SE 28 35 15 19 - - -

Other Formats:

Comma delimited format used in spreadsheet applications
http://www.bom.gov.au/fwo/IDQ60801/IDQ60801.94581.axf

JavaScript Object Notation format (JSON) in row-major order
http://www.bom.gov.au/fwo/IDQ60801/IDQ60801.94581.json